메인 페이지
METAR-TAF:

METAR-TAF

공항 :

아테네 국제공항

아테네, 그리스

위도: 37-56N, 경도: 023-56E, 고도: 94m

현재 날씨관측

예보는 15분 전, 22:20시(UTC)에 발표되었습니다.
여러 방향의 바람 1kt
온도 19°C
습도 94%
기압 1010 hPa
시정 10km 이상
1500m 미만 상공 구름 및 적란운 없음

METAR: LGAV 182220Z VRB01KT CAVOK 19/18 Q1010 NOSIG

시각: 01:35 (22:35 UTC)

예보

예보는 5 시간 35분 전, 17:00시(UTC)에 발표되었습니다.
예보 대상 시간: 18일 18시부터 19일 18시까지 (UTC)
여러 방향의 바람 5kt
시정 10km 이상
고도 2000ft 상공 구름 조금
고도 3000ft 상공 구름 보통
확률 40% :
일시적
19일 09시부터 19일 15시까지 (UTC)
시정: 5000m
고도 1000ft 상공 구름 보통
고도 1800ft 상공 구름 조금, 적란운.
고도 2000ft 상공 구름 많음
뇌우, 비
전환 중
19일 03시부터 19일 05시까지 (UTC)
북북동15kt

TAF: LGAV 181700Z 1818/1918 VRB05KT 9999 FEW020 SCT030 PROB40 TEMPO 1909/1915 5000 TSRA SCT010 FEW018CB BKN020 BECMG 1903/1905 03015KT

4,000개 이상의 공항 관측 자료 및 예보 (METAR 및 TAF 보고).

지도상에서 검색 가능한 기상관측소가 노란 점과 빨간 점으로 표시되어 있습니다.

기상관측소 명을 보려면 표시 위로 마우스를 이동하세요.

날씨 관측과 예보를 보려면 클릭하세요.

지도 변경 : 확대하려면 엑스 표시가 있는 녹색 버튼, 축소하려면 빼기 표시가 있는 녹색 버튼, 다음 페이지의 지도를 보려면 녹색 화살표를 클릭하세요.


METAR-TAF: